UPSVAC Airport Information Service

Seoul Incheon International Airport

ICAO: RKSI Country: South Korea
Latitude: 37.4691 Longitude: 126.451
Latest Arrival : UPS487 (PANC-RKSI) Latest Departure : UPS1243 (RKSI-PANC)


WX CaptureLIVE
Data provided by noaa.gov | Fetched at 17:36:55

METAR : RKSI 281700Z 23004G15KT 8000 NSC 27/24 Q1002 NOSIG

TAF : RKSI 281100Z 2812/2918 29007KT CAVOK TN25/2820Z TX32/2905Z BECMG 2815/2816 19006KT 6000 SCT035 BECMG 2903/2904 29008KT 9999 TEMPO 2907/2909 6000 -SHRA SCT010CB BKN040 BECMG 2915/2916 20006KT


Runway Data for RKSI
Data provided by openaviationdata.com

Runway ID Mag Var Hdg Length Elevation Surface ILS Freq ILS Id ILS Slope
15L -8 152° 12308 ft 23 ft Asphalt 111.9 ISLL 3
15R -8 152° 12308 ft 23 ft Asphalt 109.1 ISRR 3
33L -8 332° 12308 ft 23 ft Asphalt 109.3 INLL 3
33R -8 332° 12308 ft 23 ft Asphalt 108.9 INRR 3

Seoul Incheon International Airport, South Korea
Use only for reference purposes



Not for navigational purposes.